Time;durP1;ratioP1;P1;durP2;ratioP2;P2;SDS_P1;SDS_P2;PMS_P1;PMS_P2;Temp;Humidity;BMP_temperature;BMP_pressure;BME280_temperature;BME280_humidity;BME280_pressure;Samples;Min_cycle;Max_cycle;Signal;HPM_P1;HPM_P2
2023/07/29 00:02:32;;;;;;;4.03;2.40;;;27.60;48.30;;;;;;6128204;29;20036;-76
2023/07/29 00:05:33;;;;;;;3.70;2.40;;;27.40;48.30;;;;;;6128191;29;20457;-76
2023/07/29 00:08:33;;;;;;;4.18;2.55;;;27.30;48.40;;;;;;6128320;29;20031;-76
2023/07/29 00:11:34;;;;;;;5.88;2.20;;;27.20;48.40;;;;;;6128079;29;20147;-76
2023/07/29 00:14:35;;;;;;;6.10;2.65;;;27.20;48.40;;;;;;6094841;29;20036;-77
2023/07/29 00:17:36;;;;;;;2.88;2.00;;;27.20;48.20;;;;;;6109533;29;20109;-77
2023/07/29 00:20:37;;;;;;;3.88;2.33;;;27.20;48.20;;;;;;6108922;29;20377;-76
2023/07/29 00:23:38;;;;;;;3.88;2.22;;;27.20;48.10;;;;;;6126805;29;20165;-75
2023/07/29 00:26:38;;;;;;;3.22;2.10;;;27.20;48.10;;;;;;6109612;29;20062;-76
2023/07/29 00:29:39;;;;;;;10.73;2.70;;;27.20;48.10;;;;;;6109987;29;20062;-78
2023/07/29 00:32:40;;;;;;;6.22;2.50;;;27.20;48.10;;;;;;6109231;29;20126;-77
2023/07/29 00:35:41;;;;;;;3.80;2.38;;;27.20;48.10;;;;;;6093872;29;20039;-76
2023/07/29 00:38:41;;;;;;;3.17;2.42;;;27.20;48.10;;;;;;6109564;29;20094;-76
2023/07/29 00:41:42;;;;;;;10.98;2.00;;;27.20;48.10;;;;;;6092896;29;20083;-76
2023/07/29 00:44:43;;;;;;;11.32;2.40;;;27.20;48.00;;;;;;6109229;29;20381;-78
2023/07/29 00:47:44;;;;;;;5.45;2.60;;;27.20;48.10;;;;;;6108445;29;20055;-76
2023/07/29 00:50:45;;;;;;;5.53;2.67;;;27.20;48.20;;;;;;6107210;29;20043;-76
2023/07/29 00:53:46;;;;;;;3.33;2.05;;;27.20;48.40;;;;;;6107995;29;20063;-77
2023/07/29 00:56:47;;;;;;;5.40;2.10;;;27.10;48.70;;;;;;6124332;29;20035;-78
2023/07/29 00:59:48;;;;;;;4.43;2.40;;;27.10;48.80;;;;;;6124612;29;20039;-76
2023/07/29 01:02:49;;;;;;;5.10;2.53;;;27.10;49.00;;;;;;6106499;29;20031;-77
2023/07/29 01:06:13;;;;;;;3.50;2.15;;;27.10;49.20;;;;;;6123430;29;20035;-77
2023/07/29 01:09:25;;;;;;;4.38;2.53;;;27.10;49.50;;;;;;6093402;29;20067;-78
2023/07/29 01:12:54;;;;;;;4.63;2.45;;;27.00;49.60;;;;;;6092589;29;20047;-77
2023/07/29 01:16:00;;;;;;;5.97;2.53;;;27.10;49.80;;;;;;6109421;29;20035;-76
2023/07/29 01:19:07;;;;;;;6.40;3.22;;;27.00;49.90;;;;;;6108941;29;20055;-76
2023/07/29 01:22:09;;;;;;;5.97;2.30;;;27.00;49.90;;;;;;6122128;29;20028;-77
2023/07/29 01:25:10;;;;;;;5.50;2.55;;;27.00;50.50;;;;;;6125597;29;20024;-76
2023/07/29 01:28:11;;;;;;;6.45;2.85;;;27.00;49.90;;;;;;6127351;29;20749;-77
2023/07/29 01:31:21;;;;;;;3.50;2.30;;;27.00;49.90;;;;;;6108416;29;20127;-77
2023/07/29 01:34:32;;;;;;;4.50;2.42;;;26.90;50.10;;;;;;6130594;29;20032;-77
2023/07/29 01:37:36;;;;;;;4.20;2.63;;;26.90;50.20;;;;;;6113733;29;20114;-77
2023/07/29 01:40:37;;;;;;;4.03;2.28;;;26.90;50.10;;;;;;6122087;29;20441;-76
2023/07/29 01:43:44;;;;;;;6.18;2.90;;;26.90;50.10;;;;;;6129859;29;20027;-77
2023/07/29 01:46:46;;;;;;;6.65;2.80;;;26.90;49.90;;;;;;6123825;29;20423;-76
2023/07/29 01:49:47;;;;;;;4.55;2.80;;;26.80;49.60;;;;;;6107799;29;20092;-75
2023/07/29 01:52:48;;;;;;;5.20;2.60;;;26.90;49.50;;;;;;6124130;29;20027;-76
2023/07/29 01:55:49;;;;;;;8.02;3.55;;;26.80;49.30;;;;;;6123951;29;20536;-76
2023/07/29 01:58:50;;;;;;;5.15;2.53;;;26.80;49.20;;;;;;6123105;29;20461;-77
2023/07/29 02:01:51;;;;;;;5.13;2.50;;;26.70;49.00;;;;;;6123353;29;20034;-76
2023/07/29 02:04:52;;;;;;;4.90;2.83;;;26.70;48.80;;;;;;6123122;29;20126;-77
2023/07/29 02:07:53;;;;;;;6.75;2.70;;;26.70;48.70;;;;;;6122500;29;20047;-76
2023/07/29 02:10:54;;;;;;;7.53;3.58;;;26.70;48.80;;;;;;6122890;29;20372;-77
2023/07/29 02:13:55;;;;;;;8.80;3.78;;;26.60;48.80;;;;;;6124689;29;20035;-77
2023/07/29 02:16:56;;;;;;;4.72;2.72;;;26.60;48.80;;;;;;6102265;29;20048;-76
2023/07/29 02:19:57;;;;;;;7.53;3.13;;;26.60;48.80;;;;;;6101922;29;20147;-77
2023/07/29 02:22:57;;;;;;;6.85;2.97;;;26.60;48.70;;;;;;6097357;29;20027;-76
2023/07/29 02:25:58;;;;;;;8.98;3.83;;;26.60;48.70;;;;;;6107570;29;20076;-78
2023/07/29 02:28:59;;;;;;;8.23;2.85;;;26.50;48.70;;;;;;6108284;29;20139;-77
2023/07/29 02:32:00;;;;;;;5.50;2.80;;;26.50;48.80;;;;;;6106764;29;20043;-80
2023/07/29 02:35:01;;;;;;;10.15;3.13;;;26.50;48.80;;;;;;6124417;29;20039;-77
2023/07/29 02:38:02;;;;;;;4.70;2.70;;;26.40;48.70;;;;;;6108648;29;20031;-77
2023/07/29 02:41:03;;;;;;;5.15;2.70;;;26.40;48.70;;;;;;6107252;29;20028;-77
2023/07/29 02:44:05;;;;;;;5.68;2.40;;;26.40;48.80;;;;;;6114367;29;20480;-77
2023/07/29 02:47:06;;;;;;;5.30;2.80;;;26.40;48.80;;;;;;6115730;29;20477;-75
2023/07/29 02:50:07;;;;;;;10.23;3.05;;;26.30;48.90;;;;;;6097595;29;20055;-78
2023/07/29 02:53:08;;;;;;;7.93;3.17;;;26.30;49.00;;;;;;6132077;29;20110;-76
2023/07/29 02:56:09;;;;;;;4.57;2.67;;;26.30;49.30;;;;;;6115190;29;20046;-77
2023/07/29 02:59:10;;;;;;;6.80;2.85;;;26.20;49.50;;;;;;6116144;29;20040;-77
2023/07/29 03:02:11;;;;;;;5.70;3.10;;;26.20;49.60;;;;;;6114529;29;20063;-76
2023/07/29 03:05:12;;;;;;;5.15;2.55;;;26.20;49.80;;;;;;6113596;29;20034;-78
2023/07/29 03:08:13;;;;;;;5.07;2.80;;;26.10;50.00;;;;;;6133015;29;20027;-77
2023/07/29 03:11:15;;;;;;;8.48;2.83;;;26.10;50.20;;;;;;6113779;29;20067;-76
2023/07/29 03:14:16;;;;;;;4.97;2.78;;;26.10;50.30;;;;;;6130581;29;20431;-76
2023/07/29 03:17:17;;;;;;;5.03;2.65;;;26.10;50.50;;;;;;6112775;29;20046;-76
2023/07/29 03:20:19;;;;;;;4.85;2.42;;;26.10;50.70;;;;;;6113454;29;20070;-76
2023/07/29 03:23:19;;;;;;;3.85;2.40;;;26.10;51.00;;;;;;6116337;29;20035;-74
2023/07/29 03:26:20;;;;;;;3.45;2.28;;;26.00;51.30;;;;;;6112828;29;20043;-77
2023/07/29 03:29:21;;;;;;;4.50;2.70;;;26.00;51.60;;;;;;6115734;29;20039;-77
2023/07/29 03:32:22;;;;;;;6.35;2.75;;;26.00;52.00;;;;;;6114704;29;20460;-77
2023/07/29 03:35:23;;;;;;;5.78;3.08;;;25.90;52.30;;;;;;6112622;29;20042;-76
2023/07/29 03:38:24;;;;;;;4.20;2.67;;;25.90;52.30;;;;;;6112121;29;20039;-77
2023/07/29 03:41:25;;;;;;;4.45;2.72;;;25.80;52.30;;;;;;6129087;29;20028;-77
2023/07/29 03:44:26;;;;;;;6.78;2.92;;;25.80;52.30;;;;;;6131651;29;20417;-77
2023/07/29 03:47:27;;;;;;;5.88;2.80;;;25.80;52.30;;;;;;6114264;29;20043;-77
2023/07/29 03:50:29;;;;;;;5.70;2.90;;;25.80;52.40;;;;;;6116030;29;20042;-77
2023/07/29 03:53:30;;;;;;;5.15;2.88;;;25.80;52.50;;;;;;6120267;29;20042;-76
2023/07/29 03:56:31;;;;;;;3.97;2.35;;;25.70;52.80;;;;;;6126872;29;20051;-77
2023/07/29 03:59:32;;;;;;;5.90;2.78;;;25.70;53.10;;;;;;6111284;29;20143;-77
2023/07/29 04:02:33;;;;;;;4.75;2.55;;;25.70;53.30;;;;;;6111515;29;20035;-77
2023/07/29 04:05:34;;;;;;;3.58;2.53;;;25.70;53.40;;;;;;6125165;29;20031;-77
2023/07/29 04:08:35;;;;;;;3.38;2.33;;;25.60;53.50;;;;;;6104008;29;20035;-76
2023/07/29 04:11:35;;;;;;;5.78;2.85;;;25.60;53.80;;;;;;6110043;29;20226;-75
2023/07/29 04:14:36;;;;;;;4.35;2.50;;;25.50;54.00;;;;;;6109847;29;20034;-77
2023/07/29 04:17:37;;;;;;;7.18;3.53;;;25.50;54.20;;;;;;6126399;29;20377;-76
2023/07/29 04:20:38;;;;;;;5.05;3.65;;;25.50;54.40;;;;;;6095214;29;20111;-77
2023/07/29 04:23:40;;;;;;;5.18;3.20;;;25.40;54.60;;;;;;6127554;29;20034;-78
2023/07/29 04:26:41;;;;;;;5.50;2.90;;;25.40;54.80;;;;;;6095294;29;20110;-77
2023/07/29 04:29:41;;;;;;;10.43;3.75;;;25.30;55.00;;;;;;6111422;29;20063;-77
2023/07/29 04:32:48;;;;;;;8.55;3.13;;;25.20;55.10;;;;;;6111420;29;20097;-77
2023/07/29 04:35:49;;;;;;;7.80;3.60;;;25.20;55.40;;;;;;6095070;29;20079;-78
2023/07/29 04:38:49;;;;;;;11.05;5.20;;;25.10;55.60;;;;;;6095699;29;20134;-77
2023/07/29 04:41:51;;;;;;;8.95;4.93;;;25.10;55.80;;;;;;6110010;29;20038;-77
2023/07/29 04:44:51;;;;;;;9.98;4.50;;;25.10;56.10;;;;;;6127897;29;20662;-78
2023/07/29 04:47:52;;;;;;;9.50;5.50;;;25.10;56.20;;;;;;6094090;29;20039;-77
2023/07/29 04:50:53;;;;;;;8.68;4.75;;;25.10;56.20;;;;;;6094332;29;20062;-77
2023/07/29 04:53:54;;;;;;;7.57;3.83;;;25.10;56.10;;;;;;6109904;29;20090;-77
2023/07/29 04:56:55;;;;;;;6.93;3.83;;;25.10;56.10;;;;;;6110204;29;20080;-76
2023/07/29 04:59:55;;;;;;;8.10;3.42;;;25.10;56.10;;;;;;6110610;29;20027;-78
2023/07/29 05:02:56;;;;;;;5.38;3.17;;;25.10;56.00;;;;;;6126731;29;20127;-78
2023/07/29 05:05:59;;;;;;;5.32;2.47;;;25.10;56.00;;;;;;6127139;29;20111;-78
2023/07/29 05:09:13;;;;;;;12.57;3.65;;;25.10;56.00;;;;;;6110136;29;20071;-75
2023/07/29 05:12:14;;;;;;;7.47;3.20;;;25.10;56.00;;;;;;6110043;29;20134;-78
2023/07/29 05:15:15;;;;;;;5.57;3.30;;;25.10;56.00;;;;;;6109470;29;20039;-78
2023/07/29 05:18:16;;;;;;;7.25;3.55;;;25.10;56.00;;;;;;6107932;29;20126;-77
2023/07/29 05:21:17;;;;;;;7.72;3.60;;;25.20;56.10;;;;;;6109015;29;20039;-78
2023/07/29 05:24:18;;;;;;;6.13;2.92;;;25.10;56.00;;;;;;6108608;29;20169;-77
2023/07/29 05:27:19;;;;;;;9.02;3.42;;;25.10;56.00;;;;;;6110381;29;20658;-78
2023/07/29 05:30:20;;;;;;;7.47;3.47;;;25.20;56.00;;;;;;6112348;29;20051;-77
2023/07/29 05:33:20;;;;;;;5.97;3.20;;;25.20;56.00;;;;;;6109938;29;20039;-78
2023/07/29 05:36:21;;;;;;;6.00;3.22;;;25.20;56.50;;;;;;6093690;29;20473;-77
2023/07/29 05:39:22;;;;;;;8.05;2.95;;;25.30;55.90;;;;;;6109020;29;20035;-78
2023/07/29 05:42:25;;;;;;;11.55;3.38;;;25.30;56.00;;;;;;6112122;29;20431;-76
2023/07/29 05:45:26;;;;;;;6.55;3.20;;;25.30;56.10;;;;;;6128864;29;20099;-79
2023/07/29 05:48:27;;;;;;;4.32;2.72;;;25.30;56.10;;;;;;6131494;29;20063;-78
2023/07/29 05:51:28;;;;;;;8.18;3.17;;;25.30;56.00;;;;;;6115786;29;20154;-75
2023/07/29 05:54:29;;;;;;;5.28;3.28;;;25.40;55.90;;;;;;6090812;29;20080;-76
2023/07/29 05:57:30;;;;;;;4.00;2.63;;;25.40;55.70;;;;;;6084194;29;20067;-76
2023/07/29 06:00:30;;;;;;;6.03;2.90;;;25.40;55.40;;;;;;6101427;29;20032;-76
2023/07/29 06:03:31;;;;;;;4.82;2.72;;;25.50;55.10;;;;;;6084693;29;20036;-76
2023/07/29 06:06:32;;;;;;;4.65;2.97;;;25.50;55.00;;;;;;6083568;29;20043;-77
2023/07/29 06:09:33;;;;;;;6.03;2.83;;;25.50;55.00;;;;;;6084623;29;20123;-76
2023/07/29 06:12:34;;;;;;;5.93;3.15;;;25.50;55.00;;;;;;6084156;29;20036;-79
2023/07/29 06:15:34;;;;;;;4.25;2.65;;;25.50;54.90;;;;;;6083972;29;20036;-77
2023/07/29 06:18:35;;;;;;;6.32;2.90;;;25.50;54.90;;;;;;6100707;29;20133;-76
2023/07/29 06:21:36;;;;;;;5.57;3.08;;;25.50;54.90;;;;;;6084498;29;20032;-76
2023/07/29 06:24:37;;;;;;;8.05;3.10;;;25.60;55.00;;;;;;6100790;29;20035;-79
2023/07/29 06:27:38;;;;;;;7.55;3.45;;;25.60;54.80;;;;;;6124153;29;20062;-77
2023/07/29 06:30:38;;;;;;;8.13;3.28;;;25.80;54.80;;;;;;6125461;29;20032;-77
2023/07/29 06:33:39;;;;;;;6.18;3.17;;;25.90;54.70;;;;;;6125779;29;20028;-77
2023/07/29 06:36:40;;;;;;;5.70;3.50;;;25.90;54.40;;;;;;6125096;29;20591;-75
2023/07/29 06:39:41;;;;;;;6.03;2.78;;;26.00;54.00;;;;;;6123601;29;20265;-77
2023/07/29 06:42:42;;;;;;;7.70;3.40;;;26.10;54.00;;;;;;6095543;29;20456;-77
2023/07/29 06:45:43;;;;;;;5.57;3.05;;;26.10;53.80;;;;;;6082509;29;20035;-77
2023/07/29 06:48:43;;;;;;;7.72;3.80;;;26.20;53.80;;;;;;6081095;29;20047;-76
2023/07/29 06:51:44;;;;;;;5.75;3.22;;;26.20;53.70;;;;;;6081688;29;20040;-77
2023/07/29 06:54:45;;;;;;;10.23;3.45;;;26.30;53.40;;;;;;6083432;29;20164;-78
2023/07/29 06:57:46;;;;;;;6.65;3.58;;;26.30;53.10;;;;;;6101594;29;20048;-78
2023/07/29 07:00:47;;;;;;;4.95;2.95;;;26.40;53.00;;;;;;6124607;29;20028;-75
2023/07/29 07:03:48;;;;;;;5.72;2.88;;;26.50;52.90;;;;;;6107552;29;20036;-77
2023/07/29 07:06:48;;;;;;;6.15;3.28;;;26.60;52.60;;;;;;6107260;29;20087;-77
2023/07/29 07:09:49;;;;;;;8.45;2.85;;;26.80;52.60;;;;;;6107183;29;20103;-77
2023/07/29 07:12:50;;;;;;;9.25;3.15;;;26.90;52.40;;;;;;6124569;29;20099;-77
2023/07/29 07:15:53;;;;;;;3.90;2.72;;;27.10;52.30;;;;;;6107122;29;20501;-79
2023/07/29 07:18:54;;;;;;;6.10;3.10;;;27.30;52.10;;;;;;6107585;29;20111;-77
2023/07/29 07:21:55;;;;;;;7.28;3.35;;;27.40;51.60;;;;;;6106950;29;20103;-77
2023/07/29 07:24:56;;;;;;;5.50;2.92;;;27.50;51.40;;;;;;6106040;29;20062;-77
2023/07/29 07:27:56;;;;;;;5.20;2.85;;;27.60;51.30;;;;;;6105152;29;20061;-77
2023/07/29 07:30:57;;;;;;;4.45;2.83;;;27.60;51.20;;;;;;6128536;29;20518;-77
2023/07/29 07:33:58;;;;;;;6.97;3.40;;;27.70;51.20;;;;;;6110576;29;20112;-78
2023/07/29 07:37:00;;;;;;;7.20;2.90;;;27.70;50.90;;;;;;6127908;29;20735;-78
2023/07/29 07:40:01;;;;;;;10.93;3.22;;;27.90;50.60;;;;;;6108047;29;20042;-77
2023/07/29 07:43:02;;;;;;;6.22;3.38;;;28.20;50.00;;;;;;6109748;29;20031;-77
2023/07/29 07:46:03;;;;;;;5.25;3.00;;;28.50;49.50;;;;;;6127222;29;20039;-76
2023/07/29 07:49:04;;;;;;;7.10;3.63;;;28.60;48.80;;;;;;6110099;29;20031;-76
2023/07/29 07:52:05;;;;;;;4.80;3.00;;;28.70;48.50;;;;;;6126766;29;20093;-77
2023/07/29 07:55:06;;;;;;;6.03;3.20;;;28.70;48.00;;;;;;6109121;29;20035;-76
2023/07/29 07:58:07;;;;;;;5.78;2.95;;;28.60;48.00;;;;;;6109839;29;20035;-77
2023/07/29 08:01:09;;;;;;;4.10;2.70;;;28.50;48.20;;;;;;6127078;29;20119;-77
2023/07/29 08:04:10;;;;;;;4.07;2.50;;;28.50;48.20;;;;;;6127136;29;20032;-77
2023/07/29 08:07:14;;;;;;;5.80;3.20;;;28.60;48.20;;;;;;6109278;29;20035;-76
2023/07/29 08:10:15;;;;;;;6.40;2.85;;;28.70;48.00;;;;;;6111114;29;20049;-76
2023/07/29 08:13:15;;;;;;;4.50;2.75;;;28.80;47.80;;;;;;6109943;29;20285;-78
2023/07/29 08:16:16;;;;;;;3.85;2.47;;;29.10;47.90;;;;;;6109714;29;20039;-78
2023/07/29 08:19:17;;;;;;;8.80;3.05;;;29.00;47.50;;;;;;6125635;29;20047;-77
2023/07/29 08:22:18;;;;;;;4.93;3.00;;;29.10;47.10;;;;;;6111309;29;20110;-77
2023/07/29 08:25:19;;;;;;;6.20;3.08;;;29.20;47.00;;;;;;6127011;29;20119;-76
2023/07/29 08:28:21;;;;;;;5.18;2.95;;;29.20;46.80;;;;;;6094526;29;20083;-77
2023/07/29 08:31:21;;;;;;;5.15;3.20;;;29.30;46.50;;;;;;6109788;29;20047;-77
2023/07/29 08:34:22;;;;;;;5.53;3.10;;;29.40;46.10;;;;;;6109698;29;20087;-76
2023/07/29 08:37:23;;;;;;;6.47;3.10;;;29.60;45.80;;;;;;6108360;29;20036;-77
2023/07/29 08:40:29;;;;;;;5.72;3.25;;;29.80;45.40;;;;;;6108547;29;20047;-77
2023/07/29 08:43:31;;;;;;;6.80;2.85;;;29.90;45.00;;;;;;6126921;29;20036;-78
2023/07/29 08:46:33;;;;;;;8.73;4.10;;;30.00;44.50;;;;;;6126495;29;20537;-77
2023/07/29 08:49:34;;;;;;;15.38;4.47;;;30.20;44.30;;;;;;6098358;29;20032;-77
2023/07/29 08:52:35;;;;;;;5.55;3.28;;;30.30;43.90;;;;;;6095689;29;20035;-76
2023/07/29 08:55:36;;;;;;;5.22;2.85;;;30.40;43.50;;;;;;6109337;29;20043;-78
2023/07/29 08:58:39;;;;;;;7.95;3.55;;;30.50;43.40;;;;;;6094583;29;20062;-75
2023/07/29 09:01:39;;;;;;;9.27;4.07;;;30.70;43.30;;;;;;6109495;29;20119;-76
2023/07/29 09:04:40;;;;;;;13.70;3.75;;;30.70;43.00;;;;;;6109889;29;20054;-77
2023/07/29 09:07:42;;;;;;;6.70;3.50;;;30.90;42.70;;;;;;6127723;29;20036;-77
2023/07/29 09:10:43;;;;;;;8.15;3.40;;;31.10;42.40;;;;;;6125873;29;20082;-76
2023/07/29 09:13:44;;;;;;;6.00;3.33;;;31.20;42.10;;;;;;6109345;29;20040;-78
2023/07/29 09:16:45;;;;;;;4.78;2.97;;;31.30;42.00;;;;;;6108963;29;20059;-77
2023/07/29 09:19:50;;;;;;;5.25;2.80;;;31.40;41.80;;;;;;6126287;29;20036;-77
2023/07/29 09:22:51;;;;;;;5.85;3.08;;;31.50;41.50;;;;;;6125008;29;20031;-77
2023/07/29 09:26:01;;;;;;;4.90;3.42;;;31.70;41.30;;;;;;6108708;29;20047;-78
2023/07/29 09:29:02;;;;;;;4.90;3.28;;;31.80;40.70;;;;;;6110513;29;20107;-77
2023/07/29 09:32:22;;;;;;;5.15;3.38;;;31.90;40.20;;;;;;6119623;29;20494;-77
2023/07/29 09:35:23;;;;;;;7.28;3.50;;;31.90;40.10;;;;;;6109903;29;20047;-77
2023/07/29 09:38:28;;;;;;;4.65;3.33;;;31.90;40.20;;;;;;6142423;29;20092;-77
2023/07/29 09:41:32;;;;;;;7.53;3.20;;;32.10;40.10;;;;;;6131508;29;20043;-77
2023/07/29 09:44:36;;;;;;;6.55;3.38;;;32.10;39.30;;;;;;6126753;29;20019;-78
2023/07/29 09:47:37;;;;;;;7.82;3.85;;;32.10;39.00;;;;;;6126440;29;20035;-78
2023/07/29 09:50:37;;;;;;;6.05;3.88;;;32.20;39.20;;;;;;6108481;29;20042;-75
2023/07/29 09:53:47;;;;;;;5.90;3.42;;;32.30;39.00;;;;;;6108072;29;20071;-78
2023/07/29 09:56:48;;;;;;;7.10;3.58;;;32.40;38.70;;;;;;6125182;29;20051;-76
2023/07/29 09:59:55;;;;;;;7.38;3.60;;;32.60;38.60;;;;;;6125066;29;20035;-78
2023/07/29 10:02:57;;;;;;;5.75;3.47;;;32.60;38.20;;;;;;6126509;29;20047;-76
2023/07/29 10:06:05;;;;;;;5.60;3.35;;;32.80;38.20;;;;;;6126304;29;20123;-77
2023/07/29 10:09:07;;;;;;;3.63;2.47;;;32.90;38.00;;;;;;6109513;29;20497;-76
2023/07/29 10:12:09;;;;;;;2.90;2.10;;;33.00;37.70;;;;;;6109788;29;20430;-77
2023/07/29 10:15:10;;;;;;;4.10;2.47;;;33.00;37.40;;;;;;6107117;29;20051;-78
2023/07/29 10:18:15;;;;;;;5.68;2.35;;;33.00;37.20;;;;;;6123258;29;20035;-76
2023/07/29 10:21:16;;;;;;;2.75;2.25;;;32.90;37.40;;;;;;6106998;29;20521;-79
2023/07/29 10:24:23;;;;;;;4.18;2.40;;;32.90;37.80;;;;;;6125594;29;20130;-77
2023/07/29 10:27:26;;;;;;;2.93;1.70;;;32.80;37.70;;;;;;6091806;29;20043;-77
2023/07/29 10:30:28;;;;;;;5.82;2.38;;;32.80;37.70;;;;;;6107749;29;20084;-78
2023/07/29 10:33:31;;;;;;;7.60;2.28;;;32.80;37.40;;;;;;6107085;29;20114;-78
2023/07/29 10:36:32;;;;;;;6.07;2.30;;;32.90;37.20;;;;;;6091655;29;20512;-78
2023/07/29 10:39:39;;;;;;;7.78;2.03;;;32.90;36.90;;;;;;6126017;29;20028;-78
2023/07/29 10:43:01;;;;;;;3.57;1.93;;;33.00;36.80;;;;;;6124592;29;20110;-77
2023/07/29 10:46:22;;;;;;;3.28;2.20;;;33.10;36.30;;;;;;6091642;29;20134;-78
2023/07/29 10:49:31;;;;;;;3.80;2.47;;;33.20;36.20;;;;;;6108426;29;20437;-77
2023/07/29 10:52:34;;;;;;;3.38;2.17;;;33.20;36.20;;;;;;6109496;29;20131;-77
2023/07/29 10:55:36;;;;;;;3.38;1.85;;;33.30;36.00;;;;;;6092730;29;20040;-79
2023/07/29 10:58:37;;;;;;;6.45;2.20;;;33.50;35.70;;;;;;6122832;29;20146;-76
2023/07/29 11:01:45;;;;;;;2.53;1.70;;;33.80;35.20;;;;;;6124463;29;20035;-76
2023/07/29 11:04:48;;;;;;;3.70;2.28;;;33.90;34.60;;;;;;6128466;29;20111;-76
2023/07/29 11:07:49;;;;;;;5.47;2.55;;;33.90;34.30;;;;;;6112089;29;20348;-78
2023/07/29 11:11:07;;;;;;;5.15;2.03;;;33.90;34.40;;;;;;6110762;29;20075;-78
2023/07/29 11:14:09;;;;;;;2.85;1.80;;;33.80;34.30;;;;;;6109953;29;20095;-78
2023/07/29 11:17:10;;;;;;;3.60;2.33;;;33.90;34.40;;;;;;6129585;29;20038;-77
2023/07/29 11:20:12;;;;;;;7.72;2.35;;;33.90;34.40;;;;;;6112038;29;20039;-78
2023/07/29 11:23:13;;;;;;;3.72;2.08;;;33.90;34.40;;;;;;6124495;29;20104;-76
2023/07/29 11:26:16;;;;;;;4.10;2.25;;;34.00;34.30;;;;;;6106656;29;20043;-78
2023/07/29 11:29:17;;;;;;;7.05;2.58;;;34.00;34.80;;;;;;6107059;29;20036;-78
2023/07/29 11:32:18;;;;;;;3.22;1.90;;;34.20;34.20;;;;;;6089120;29;20032;-79
2023/07/29 11:35:19;;;;;;;15.05;2.58;;;34.20;34.00;;;;;;6088860;29;20252;-77
2023/07/29 11:38:21;;;;;;;4.80;2.20;;;34.20;34.10;;;;;;6100274;29;20047;-79
2023/07/29 11:41:22;;;;;;;3.92;2.20;;;34.30;34.00;;;;;;6129901;29;20062;-77
2023/07/29 11:44:24;;;;;;;7.22;2.78;;;34.40;33.70;;;;;;6128760;29;20066;-77
2023/07/29 11:47:25;;;;;;;4.13;2.35;;;34.50;33.60;;;;;;6128827;29;20110;-78
2023/07/29 11:50:26;;;;;;;3.50;2.20;;;34.50;33.50;;;;;;6112341;29;20032;-79
2023/07/29 11:53:30;;;;;;;3.83;2.22;;;34.50;33.60;;;;;;6129702;29;20083;-77
2023/07/29 11:56:32;;;;;;;6.20;2.47;;;34.50;33.60;;;;;;6127157;29;20039;-78
2023/07/29 11:59:35;;;;;;;4.13;2.30;;;34.40;33.70;;;;;;6127872;29;20024;-79
2023/07/29 12:02:38;;;;;;;4.38;2.72;;;34.60;33.70;;;;;;6111012;29;20468;-77
2023/07/29 12:05:40;;;;;;;5.10;2.92;;;34.90;33.70;;;;;;6127674;29;20385;-79
2023/07/29 12:08:42;;;;;;;9.80;2.97;;;35.60;33.20;;;;;;6111685;29;20130;-78
2023/07/29 12:11:45;;;;;;;4.93;3.00;;;36.70;32.30;;;;;;6112010;29;20035;-79
2023/07/29 12:14:46;;;;;;;5.70;3.55;;;37.30;31.20;;;;;;6127874;29;20086;-78
2023/07/29 12:17:47;;;;;;;5.43;3.08;;;37.50;30.70;;;;;;6127073;29;20036;-77
2023/07/29 12:20:48;;;;;;;4.32;2.75;;;37.60;30.60;;;;;;6128995;29;20028;-77
2023/07/29 12:23:51;;;;;;;6.63;2.80;;;37.60;30.30;;;;;;6129026;29;20028;-77
2023/07/29 12:26:51;;;;;;;4.10;2.75;;;37.60;30.20;;;;;;6128410;29;20110;-76
2023/07/29 12:29:53;;;;;;;5.25;2.30;;;37.60;30.10;;;;;;6126437;29;20393;-77
2023/07/29 12:32:54;;;;;;;5.45;3.05;;;37.80;30.00;;;;;;6111015;29;20117;-76
2023/07/29 12:35:55;;;;;;;8.93;2.45;;;38.30;29.30;;;;;;6111333;29;20384;-79
2023/07/29 12:38:59;;;;;;;6.82;3.10;;;38.60;28.90;;;;;;6129017;29;20114;-78
2023/07/29 12:42:01;;;;;;;4.00;2.53;;;39.20;28.20;;;;;;6112107;29;20370;-79
2023/07/29 12:45:02;;;;;;;5.15;2.67;;;39.70;27.40;;;;;;6111185;29;20131;-78
2023/07/29 12:48:03;;;;;;;12.98;4.55;;;40.10;26.80;;;;;;6110823;29;20091;-78
2023/07/29 12:51:04;;;;;;;7.72;2.47;;;40.60;26.30;;;;;;6112555;29;20046;-78
2023/07/29 12:54:05;;;;;;;4.47;2.67;;;41.00;25.80;;;;;;6117180;29;20023;-79
2023/07/29 12:57:06;;;;;;;4.32;2.70;;;41.50;25.40;;;;;;6116283;29;20042;-80
2023/07/29 13:00:08;;;;;;;3.80;2.60;;;42.10;25.00;;;;;;6119172;29;20046;-80
2023/07/29 13:03:09;;;;;;;4.78;2.80;;;42.40;24.40;;;;;;6125517;29;20031;-77
2023/07/29 13:06:10;;;;;;;4.35;2.72;;;42.20;24.20;;;;;;6131795;29;20058;-78
2023/07/29 13:09:11;;;;;;;4.95;2.97;;;42.00;24.40;;;;;;6110563;29;20143;-79
2023/07/29 13:12:12;;;;;;;5.57;2.40;;;41.90;24.60;;;;;;6126958;29;20035;-78
2023/07/29 13:15:13;;;;;;;8.95;2.35;;;41.80;24.70;;;;;;6126766;29;20064;-78
2023/07/29 13:18:13;;;;;;;6.53;3.17;;;41.70;24.80;;;;;;6124434;29;20543;-79
2023/07/29 13:21:14;;;;;;;3.78;2.25;;;42.00;24.70;;;;;;6126111;29;20048;-79
2023/07/29 13:24:15;;;;;;;5.32;2.88;;;42.70;24.30;;;;;;6116058;29;20080;-79
2023/07/29 13:27:16;;;;;;;3.33;2.22;;;43.00;24.00;;;;;;6109215;29;20047;-77
2023/07/29 13:30:17;;;;;;;5.30;2.65;;;42.80;24.10;;;;;;6109818;29;20063;-78
2023/07/29 13:33:17;;;;;;;4.55;2.65;;;41.80;24.80;;;;;;6109988;29;20537;-78
2023/07/29 13:36:18;;;;;;;7.45;2.55;;;40.60;25.90;;;;;;6126499;29;20396;-77
2023/07/29 13:39:19;;;;;;;6.68;2.80;;;39.50;26.90;;;;;;6109265;29;20039;-78
2023/07/29 13:42:20;;;;;;;4.35;2.95;;;38.60;27.70;;;;;;6111037;29;20173;-77
2023/07/29 13:45:21;;;;;;;5.75;2.90;;;37.90;28.40;;;;;;6109924;29;20039;-78
2023/07/29 13:48:22;;;;;;;8.63;3.03;;;37.50;28.90;;;;;;6127642;29;20119;-78
2023/07/29 13:51:23;;;;;;;4.47;2.58;;;37.50;29.30;;;;;;6109450;29;20050;-76
2023/07/29 13:54:24;;;;;;;6.03;2.47;;;37.80;29.00;;;;;;6125531;29;20035;-77
2023/07/29 13:57:24;;;;;;;3.03;2.20;;;37.80;29.00;;;;;;6124541;29;20035;-78
2023/07/29 14:00:25;;;;;;;6.20;2.85;;;38.00;29.00;;;;;;6125396;29;20129;-77
2023/07/29 14:03:26;;;;;;;6.57;2.20;;;38.70;28.40;;;;;;6109008;29;20176;-79
2023/07/29 14:06:30;;;;;;;3.45;2.38;;;40.10;27.30;;;;;;6125322;29;20123;-79
2023/07/29 14:09:31;;;;;;;2.45;2.10;;;41.70;25.90;;;;;;6124511;29;20142;-79
2023/07/29 14:12:32;;;;;;;4.03;2.40;;;42.90;24.60;;;;;;6120814;29;20039;-79
2023/07/29 14:15:32;;;;;;;2.25;1.73;;;44.10;23.80;;;;;;6125156;29;20062;-77
2023/07/29 14:18:33;;;;;;;7.82;2.55;;;45.10;22.60;;;;;;6108450;29;20476;-79
2023/07/29 14:21:34;;;;;;;3.45;2.10;;;45.50;22.00;;;;;;6107784;29;20024;-77
2023/07/29 14:24:35;;;;;;;3.80;1.92;;;45.50;21.80;;;;;;6099923;29;20032;-79
2023/07/29 14:27:36;;;;;;;5.22;2.28;;;45.50;21.80;;;;;;6118165;29;20771;-80
2023/07/29 14:30:37;;;;;;;6.68;2.35;;;44.60;22.10;;;;;;6127179;29;20451;-80
2023/07/29 14:33:38;;;;;;;2.50;1.92;;;43.50;22.90;;;;;;6094795;29;20480;-80
2023/07/29 14:36:39;;;;;;;3.05;2.22;;;42.20;24.50;;;;;;6109766;29;20028;-79
2023/07/29 14:39:39;;;;;;;3.90;2.53;;;41.00;25.00;;;;;;6126829;29;20043;-78
2023/07/29 14:42:40;;;;;;;9.20;3.63;;;40.00;25.90;;;;;;6109253;29;20224;-78
2023/07/29 14:45:41;;;;;;;2.83;1.95;;;39.10;26.80;;;;;;6124620;29;20513;-79
2023/07/29 14:48:42;;;;;;;4.07;2.08;;;38.50;27.50;;;;;;6108317;29;20058;-78
2023/07/29 14:51:43;;;;;;;7.88;3.40;;;38.30;27.80;;;;;;6125003;29;20039;-76
2023/07/29 14:54:43;;;;;;;2.75;2.30;;;38.90;27.40;;;;;;6107438;29;20036;-78
2023/07/29 14:57:44;;;;;;;3.78;1.95;;;39.80;26.50;;;;;;6092399;29;20031;-81
2023/07/29 15:00:45;;;;;;;2.63;1.88;;;40.60;26.30;;;;;;6110163;29;20047;-78
2023/07/29 15:03:47;;;;;;;4.63;2.50;;;40.50;25.80;;;;;;6109671;29;20048;-78
2023/07/29 15:06:48;;;;;;;3.78;2.55;;;39.90;26.30;;;;;;6107435;29;20408;-78
2023/07/29 15:09:49;;;;;;;7.20;2.95;;;39.40;26.80;;;;;;6125243;29;20035;-76
2023/07/29 15:12:49;;;;;;;5.75;2.67;;;39.00;27.30;;;;;;6107987;29;20031;-77
2023/07/29 15:15:50;;;;;;;6.93;2.45;;;38.50;27.60;;;;;;6124060;29;20098;-78
2023/07/29 15:18:52;;;;;;;7.47;2.45;;;38.10;28.10;;;;;;6106814;29;20381;-77
2023/07/29 15:21:52;;;;;;;6.22;3.15;;;37.80;28.50;;;;;;6107005;29;20028;-78
2023/07/29 15:24:56;;;;;;;5.88;2.22;;;37.60;28.80;;;;;;6107320;29;20449;-76
2023/07/29 15:27:58;;;;;;;4.10;2.25;;;37.30;29.10;;;;;;6107747;29;20035;-76
2023/07/29 15:30:58;;;;;;;8.63;2.30;;;36.90;29.60;;;;;;6107810;29;20098;-77
2023/07/29 15:33:59;;;;;;;6.93;2.63;;;36.40;30.00;;;;;;6109004;29;20409;-76
2023/07/29 15:37:01;;;;;;;10.65;2.92;;;35.80;30.80;;;;;;6124953;29;20042;-77
2023/07/29 15:40:03;;;;;;;4.60;2.78;;;35.40;31.70;;;;;;6125056;29;20044;-77
2023/07/29 15:43:04;;;;;;;7.35;2.72;;;34.90;32.40;;;;;;6107427;29;20062;-77
2023/07/29 15:46:04;;;;;;;6.70;2.63;;;34.50;33.10;;;;;;6106643;29;20102;-77